Time;durP1;ratioP1;P1;durP2;ratioP2;P2;SDS_P1;SDS_P2;PMS_P1;PMS_P2;Temp;Humidity;BMP_temperature;BMP_pressure;BME280_temperature;BME280_humidity;BME280_pressure;Samples;Min_cycle;Max_cycle;Signal;HPM_P1;HPM_P2
2022/10/29 00:00:37;;;;;;;24.40;7.93;;;16.90;84.90;;;;;;5033175;28;20033;-51
2022/10/29 00:03:04;;;;;;;23.77;7.38;;;17.00;85.10;;;;;;5033380;28;20033;-48
2022/10/29 00:05:29;;;;;;;21.75;8.25;;;17.10;84.50;;;;;;5015250;28;20029;-47
2022/10/29 00:07:55;;;;;;;19.83;7.82;;;17.20;84.60;;;;;;5033025;28;20025;-48
2022/10/29 00:10:21;;;;;;;21.38;8.23;;;17.20;84.10;;;;;;5033309;28;20026;-50
2022/10/29 00:12:47;;;;;;;24.90;7.72;;;17.00;84.10;;;;;;5033276;28;20469;-48
2022/10/29 00:15:12;;;;;;;17.90;7.32;;;17.00;84.30;;;;;;5033256;28;20025;-50
2022/10/29 00:17:38;;;;;;;22.38;8.45;;;17.00;84.40;;;;;;5033004;28;20036;-48
2022/10/29 00:20:04;;;;;;;19.30;7.20;;;16.90;84.60;;;;;;5032951;28;20473;-48
2022/10/29 00:22:30;;;;;;;15.85;8.27;;;16.90;84.70;;;;;;5032784;28;20061;-47
2022/10/29 00:24:56;;;;;;;21.25;7.78;;;16.80;84.70;;;;;;5032914;28;20488;-47
2022/10/29 00:27:21;;;;;;;22.52;7.78;;;16.80;85.00;;;;;;5032604;28;20072;-47
2022/10/29 00:29:47;;;;;;;17.17;8.63;;;16.80;85.20;;;;;;5033076;28;20397;-48
2022/10/29 00:32:12;;;;;;;16.42;8.23;;;16.70;85.40;;;;;;5033030;28;20052;-49
2022/10/29 00:34:38;;;;;;;22.83;8.20;;;16.70;85.70;;;;;;5033068;28;20032;-48
2022/10/29 00:37:05;;;;;;;19.52;8.77;;;16.70;85.80;;;;;;5032913;28;20053;-47
2022/10/29 00:39:32;;;;;;;19.65;8.32;;;16.70;86.00;;;;;;5032715;28;20025;-48
2022/10/29 00:41:58;;;;;;;17.70;7.50;;;16.60;86.10;;;;;;5032993;28;20120;-48
2022/10/29 00:44:37;;;;;;;22.45;7.88;;;16.60;86.20;;;;;;5032971;28;20068;-49
2022/10/29 00:47:28;;;;;;;21.58;7.50;;;16.50;86.40;;;;;;5033327;28;20025;-47
2022/10/29 00:50:13;;;;;;;15.20;7.53;;;16.50;86.50;;;;;;5037111;28;20039;-48
2022/10/29 00:52:44;;;;;;;29.17;11.57;;;16.40;86.70;;;;;;5036708;28;20028;-48
2022/10/29 00:55:14;;;;;;;24.13;9.82;;;16.40;86.80;;;;;;5036590;28;20384;-49
2022/10/29 00:57:47;;;;;;;19.80;8.85;;;16.30;87.00;;;;;;5036605;28;20020;-48
2022/10/29 01:00:13;;;;;;;30.45;10.93;;;16.30;87.10;;;;;;5036285;28;20025;-48
2022/10/29 01:02:41;;;;;;;18.27;8.18;;;16.30;87.20;;;;;;5036370;28;20053;-48
2022/10/29 01:05:08;;;;;;;21.33;7.70;;;16.30;87.30;;;;;;5036461;28;20032;-48
2022/10/29 01:07:34;;;;;;;24.58;9.70;;;16.30;87.30;;;;;;5036537;28;20362;-47
2022/10/29 01:10:00;;;;;;;23.70;9.52;;;16.30;87.40;;;;;;5036612;28;20059;-50
2022/10/29 01:12:37;;;;;;;22.98;10.70;;;16.20;87.50;;;;;;5036253;28;20022;-48
2022/10/29 01:15:39;;;;;;;21.63;10.30;;;16.20;87.70;;;;;;5036157;28;20021;-49
2022/10/29 01:18:27;;;;;;;25.08;14.13;;;16.10;87.80;;;;;;5036438;28;20021;-48
2022/10/29 01:21:28;;;;;;;21.30;10.35;;;16.00;88.00;;;;;;5037552;28;20048;-50
2022/10/29 01:24:12;;;;;;;23.25;9.80;;;16.00;88.20;;;;;;5036789;28;20040;-48
2022/10/29 01:27:18;;;;;;;29.58;12.50;;;15.90;88.30;;;;;;5036024;28;20069;-47
2022/10/29 01:30:28;;;;;;;24.75;10.20;;;15.80;88.50;;;;;;5036420;28;20462;-48
2022/10/29 01:33:12;;;;;;;28.23;12.15;;;15.80;88.70;;;;;;4975236;28;20063;-48
2022/10/29 01:36:11;;;;;;;24.73;11.15;;;15.80;88.90;;;;;;4975926;28;20515;-50
2022/10/29 01:38:50;;;;;;;29.48;11.55;;;15.70;88.90;;;;;;5027129;28;20394;-47
2022/10/29 01:41:27;;;;;;;24.60;10.17;;;15.70;89.10;;;;;;5036351;28;20026;-48
2022/10/29 01:44:31;;;;;;;23.17;10.63;;;15.70;89.10;;;;;;5035875;28;20029;-49
2022/10/29 01:47:02;;;;;;;24.85;10.65;;;15.70;89.20;;;;;;5036085;28;20052;-50
2022/10/29 01:49:37;;;;;;;22.13;9.60;;;15.60;89.30;;;;;;5036150;28;20492;-55
2022/10/29 01:52:05;;;;;;;26.90;10.63;;;15.60;89.40;;;;;;5036138;28;20041;-48
2022/10/29 01:54:31;;;;;;;23.08;10.20;;;15.60;89.60;;;;;;5035840;28;20095;-48
2022/10/29 01:56:58;;;;;;;20.75;10.18;;;15.50;89.70;;;;;;5035644;28;20482;-48
2022/10/29 01:59:28;;;;;;;20.80;9.35;;;15.50;89.80;;;;;;5035059;28;20503;-49
2022/10/29 02:02:20;;;;;;;24.17;10.57;;;15.50;89.90;;;;;;5018617;28;20034;-50
2022/10/29 02:04:52;;;;;;;23.73;9.13;;;15.40;89.90;;;;;;5035689;28;20492;-48
2022/10/29 02:07:33;;;;;;;17.35;9.20;;;15.30;90.10;;;;;;5035829;28;20026;-53
2022/10/29 02:10:17;;;;;;;28.35;10.85;;;15.30;90.20;;;;;;5017709;28;20112;-47
2022/10/29 02:12:43;;;;;;;24.15;10.32;;;15.20;90.30;;;;;;5017712;28;20079;-48
2022/10/29 02:15:13;;;;;;;26.45;10.77;;;15.20;90.50;;;;;;5035302;28;20378;-49
2022/10/29 02:17:39;;;;;;;;;;;15.20;90.60;;;;;;5036276;28;20528;-51
2022/10/29 02:20:07;;;;;;;22.95;11.98;;;15.20;90.70;;;;;;5017380;28;19909;-47
2022/10/29 02:22:32;;;;;;;22.85;9.27;;;15.10;90.70;;;;;;5035244;28;20028;-48
2022/10/29 02:24:58;;;;;;;25.45;9.52;;;15.10;90.80;;;;;;5035184;28;20026;-50
2022/10/29 02:27:24;;;;;;;18.02;9.02;;;15.00;90.90;;;;;;5035174;28;20041;-47
2022/10/29 02:30:19;;;;;;;18.35;10.05;;;15.00;90.90;;;;;;5035337;28;20056;-49
2022/10/29 02:32:45;;;;;;;18.05;10.13;;;15.00;91.10;;;;;;5035206;28;20381;-51
2022/10/29 02:35:10;;;;;;;21.00;10.27;;;15.00;91.20;;;;;;5035287;28;20021;-49
2022/10/29 02:37:36;;;;;;;15.80;8.13;;;15.00;91.20;;;;;;5035535;28;20461;-49
2022/10/29 02:40:03;;;;;;;19.20;7.75;;;14.90;91.30;;;;;;5034663;28;20124;-49
2022/10/29 02:42:28;;;;;;;28.90;8.88;;;14.90;91.30;;;;;;5034887;28;20069;-50
2022/10/29 02:44:54;;;;;;;23.42;9.77;;;14.90;91.40;;;;;;5016854;28;20057;-49
2022/10/29 02:47:20;;;;;;;17.90;7.88;;;14.90;91.40;;;;;;5034757;28;20033;-48
2022/10/29 02:49:45;;;;;;;26.58;10.48;;;14.90;91.40;;;;;;5016759;28;20029;-55
2022/10/29 02:52:11;;;;;;;24.70;8.50;;;14.80;91.40;;;;;;5034561;28;20032;-47
2022/10/29 02:54:38;;;;;;;19.42;9.50;;;14.80;91.50;;;;;;5017084;28;20479;-48
2022/10/29 02:57:04;;;;;;;22.73;7.50;;;14.80;91.50;;;;;;5034807;28;20037;-48
2022/10/29 02:59:29;;;;;;;20.45;8.50;;;14.80;91.50;;;;;;5034563;28;20061;-48
2022/10/29 03:01:55;;;;;;;22.63;9.23;;;14.80;91.50;;;;;;5034334;28;20358;-49
2022/10/29 03:04:20;;;;;;;21.58;8.25;;;14.80;91.60;;;;;;5034107;28;20055;-52
2022/10/29 03:06:46;;;;;;;13.38;7.70;;;14.80;91.60;;;;;;5016276;28;20065;-47
2022/10/29 03:09:12;;;;;;;36.47;10.02;;;14.80;91.60;;;;;;5033799;28;20139;-48
2022/10/29 03:11:37;;;;;;;27.38;8.85;;;14.80;91.60;;;;;;5033481;28;20505;-47
2022/10/29 03:14:03;;;;;;;14.73;7.20;;;14.80;91.80;;;;;;5034340;28;20112;-48
2022/10/29 03:16:28;;;;;;;23.58;9.15;;;14.80;91.80;;;;;;5034198;28;20051;-48
2022/10/29 03:18:54;;;;;;;17.17;8.40;;;14.80;91.80;;;;;;5033948;28;20025;-47
2022/10/29 03:21:20;;;;;;;25.35;9.35;;;14.80;91.90;;;;;;5033880;28;20029;-49
2022/10/29 03:23:45;;;;;;;18.08;9.57;;;14.80;91.90;;;;;;5016138;28;20040;-50
2022/10/29 03:26:11;;;;;;;26.05;10.35;;;14.80;91.90;;;;;;5034053;28;20200;-48
2022/10/29 03:28:37;;;;;;;17.90;9.70;;;14.80;91.90;;;;;;5033931;28;20033;-48
2022/10/29 03:31:02;;;;;;;20.00;9.38;;;14.80;91.90;;;;;;5033740;28;20470;-47
2022/10/29 03:33:28;;;;;;;22.15;8.73;;;14.80;91.80;;;;;;5033796;28;20051;-47
2022/10/29 03:35:58;;;;;;;27.15;10.85;;;14.70;91.80;;;;;;5033621;28;20037;-48
2022/10/29 03:38:24;;;;;;;;;;;14.70;91.90;;;;;;5034256;28;20152;-51
2022/10/29 03:40:49;;;;;;;23.58;11.18;;;14.60;92.00;;;;;;5033649;28;19932;-48
2022/10/29 03:43:15;;;;;;;16.52;8.02;;;14.60;92.00;;;;;;5016075;28;20136;-47
2022/10/29 03:45:41;;;;;;;20.00;8.52;;;14.60;92.10;;;;;;5033678;28;20028;-47
2022/10/29 03:48:06;;;;;;;22.42;9.77;;;14.50;92.10;;;;;;5034386;28;20028;-49
2022/10/29 03:50:32;;;;;;;22.27;10.38;;;14.50;92.10;;;;;;5034288;28;20021;-49
2022/10/29 03:52:58;;;;;;;24.65;9.75;;;14.50;92.30;;;;;;5033820;28;20064;-51
2022/10/29 03:55:23;;;;;;;23.45;9.93;;;14.50;92.30;;;;;;5034006;28;20017;-47
2022/10/29 03:57:49;;;;;;;15.32;9.77;;;14.50;92.40;;;;;;5034036;28;20477;-50
2022/10/29 04:00:15;;;;;;;27.05;9.82;;;14.40;92.40;;;;;;5035188;28;20021;-48
2022/10/29 04:02:41;;;;;;;22.42;8.25;;;14.50;92.40;;;;;;5034297;28;20032;-48
2022/10/29 04:05:07;;;;;;;17.15;8.82;;;14.50;92.40;;;;;;5033497;28;20331;-48
2022/10/29 04:07:32;;;;;;;19.85;8.68;;;14.50;92.40;;;;;;5016845;28;20025;-49
2022/10/29 04:09:58;;;;;;;25.45;8.35;;;14.50;92.40;;;;;;5033870;28;20074;-48
2022/10/29 04:12:24;;;;;;;20.75;10.10;;;14.50;92.40;;;;;;5033801;28;20482;-49
2022/10/29 04:14:49;;;;;;;21.35;8.98;;;14.50;92.50;;;;;;5034113;28;20049;-48
2022/10/29 04:17:15;;;;;;;20.33;8.38;;;14.50;92.40;;;;;;5033953;28;20425;-48
2022/10/29 04:19:41;;;;;;;25.45;10.52;;;14.50;92.40;;;;;;5033310;28;20469;-48
2022/10/29 04:22:06;;;;;;;25.73;9.35;;;14.50;92.40;;;;;;5032938;28;20354;-50
2022/10/29 04:24:32;;;;;;;15.02;9.60;;;14.50;92.40;;;;;;5016525;28;20362;-47
2022/10/29 04:26:57;;;;;;;22.80;8.52;;;14.40;92.30;;;;;;5033752;28;20037;-50
2022/10/29 04:29:23;;;;;;;25.42;10.80;;;14.40;92.30;;;;;;5034221;28;20116;-50
2022/10/29 04:31:49;;;;;;;22.45;9.52;;;14.50;92.30;;;;;;5033828;28;20109;-50
2022/10/29 04:34:15;;;;;;;21.70;9.13;;;14.40;92.30;;;;;;5033335;28;20474;-49
2022/10/29 04:36:40;;;;;;;23.05;8.98;;;14.40;92.20;;;;;;5033973;28;20025;-50
2022/10/29 04:39:07;;;;;;;24.35;10.80;;;14.30;92.20;;;;;;5033116;28;20385;-49
2022/10/29 04:41:33;;;;;;;15.93;8.52;;;14.40;92.30;;;;;;5033109;28;20025;-48
2022/10/29 04:44:00;;;;;;;15.13;8.32;;;14.30;92.40;;;;;;5034081;28;20512;-49
2022/10/29 04:46:25;;;;;;;23.58;9.77;;;14.30;92.50;;;;;;5033142;28;20107;-48
2022/10/29 04:48:51;;;;;;;28.70;9.13;;;14.30;92.60;;;;;;5015364;28;20465;-48
2022/10/29 04:51:22;;;;;;;23.98;8.88;;;14.30;92.70;;;;;;5015101;28;20026;-49
2022/10/29 04:53:47;;;;;;;19.17;8.48;;;14.30;92.60;;;;;;5032657;28;20104;-50
2022/10/29 04:56:13;;;;;;;23.35;8.90;;;14.20;92.70;;;;;;5032912;28;20515;-50
2022/10/29 04:58:39;;;;;;;21.38;11.52;;;14.20;92.70;;;;;;5032592;28;20036;-50
2022/10/29 05:01:04;;;;;;;20.85;9.52;;;14.20;92.80;;;;;;5032628;28;20026;-49
2022/10/29 05:03:31;;;;;;;22.15;9.23;;;14.30;92.80;;;;;;5032496;28;20067;-48
2022/10/29 05:05:56;;;;;;;33.03;11.57;;;14.20;92.90;;;;;;5032651;28;20017;-48
2022/10/29 05:08:22;;;;;;;23.67;10.88;;;14.30;92.80;;;;;;5033215;28;20374;-48
2022/10/29 05:10:48;;;;;;;20.05;9.05;;;14.30;92.90;;;;;;5014701;28;20021;-49
2022/10/29 05:13:13;;;;;;;16.08;8.30;;;14.30;92.90;;;;;;5032616;28;20110;-49
2022/10/29 05:15:39;;;;;;;14.93;8.52;;;14.30;92.80;;;;;;5033038;28;20116;-49
2022/10/29 05:18:06;;;;;;;18.65;8.45;;;14.30;92.70;;;;;;5032544;28;20151;-49
2022/10/29 05:20:32;;;;;;;20.08;9.52;;;14.40;92.80;;;;;;5014934;28;20076;-48
2022/10/29 05:23:03;;;;;;;20.67;9.48;;;14.40;92.70;;;;;;5032423;28;20057;-49
2022/10/29 05:25:30;;;;;;;26.98;10.13;;;14.40;92.70;;;;;;5032676;28;20038;-49
2022/10/29 05:28:03;;;;;;;24.52;9.38;;;14.40;92.60;;;;;;5032549;28;20061;-48
2022/10/29 05:30:29;;;;;;;14.85;7.93;;;14.40;92.60;;;;;;5032387;28;20115;-48
2022/10/29 05:32:55;;;;;;;22.00;10.20;;;14.40;92.40;;;;;;5032975;28;20029;-48
2022/10/29 05:35:21;;;;;;;18.50;8.20;;;14.40;92.40;;;;;;5036256;28;20470;-49
2022/10/29 05:37:54;;;;;;;28.23;11.75;;;14.50;92.40;;;;;;5036124;28;20079;-49
2022/10/29 05:40:21;;;;;;;26.63;9.90;;;14.50;92.30;;;;;;5035907;28;20061;-49
2022/10/29 05:42:46;;;;;;;14.13;8.13;;;14.50;92.30;;;;;;5035666;28;20068;-48
2022/10/29 05:45:13;;;;;;;21.25;8.38;;;14.50;92.20;;;;;;5017851;28;20413;-51
2022/10/29 05:47:38;;;;;;;17.63;8.40;;;14.50;92.20;;;;;;5035840;28;20450;-48
2022/10/29 05:50:04;;;;;;;18.10;9.07;;;14.60;92.20;;;;;;5035564;28;20035;-49
2022/10/29 05:52:30;;;;;;;22.33;10.80;;;14.50;92.20;;;;;;5017813;28;20430;-47
2022/10/29 05:54:55;;;;;;;22.60;9.00;;;14.50;92.10;;;;;;5035765;28;20076;-49
2022/10/29 05:57:21;;;;;;;17.88;8.35;;;14.50;92.00;;;;;;5035483;28;20029;-48
2022/10/29 05:59:47;;;;;;;22.50;9.15;;;14.60;92.00;;;;;;5017678;28;20450;-50
2022/10/29 06:02:13;;;;;;;21.35;10.15;;;14.60;92.10;;;;;;5017545;28;20175;-52
2022/10/29 06:04:38;;;;;;;18.00;8.52;;;14.60;92.00;;;;;;5017662;28;20468;-47
2022/10/29 06:07:04;;;;;;;18.48;8.95;;;14.70;92.00;;;;;;5035340;28;20044;-49
2022/10/29 16:26:22;;;;;;;26.83;11.50;;;19.30;74.40;;;;;;5070852;28;20458;-50
2022/10/29 16:28:48;;;;;;;32.40;13.00;;;19.30;75.10;;;;;;5070577;28;20035;-49
2022/10/29 16:31:24;;;;;;;19.85;9.32;;;19.20;75.60;;;;;;5070352;28;20021;-48
2022/10/29 16:33:58;;;;;;;31.35;12.32;;;19.20;75.90;;;;;;5068652;28;20029;-51
2022/10/29 16:36:24;;;;;;;29.55;12.60;;;19.20;76.30;;;;;;5070415;28;20025;-51
2022/10/29 16:38:50;;;;;;;29.67;11.50;;;19.30;75.80;;;;;;5070239;28;20097;-52
2022/10/29 16:41:17;;;;;;;23.25;8.77;;;19.30;75.60;;;;;;5070081;28;20035;-49
2022/10/29 16:43:43;;;;;;;22.38;9.43;;;19.30;75.40;;;;;;5069884;28;20013;-49
2022/10/29 16:46:11;;;;;;;24.55;10.43;;;19.30;75.30;;;;;;5069560;28;20024;-50
2022/10/29 16:48:37;;;;;;;22.25;8.65;;;19.30;75.60;;;;;;5069911;28;20035;-50
2022/10/29 16:51:03;;;;;;;19.15;6.65;;;19.30;75.60;;;;;;5069741;28;20067;-52
2022/10/29 16:53:28;;;;;;;19.63;5.95;;;19.30;75.00;;;;;;5068120;28;20016;-51
2022/10/29 16:55:54;;;;;;;17.83;6.72;;;19.30;74.00;;;;;;5069366;28;20130;-49
2022/10/29 16:58:20;;;;;;;24.25;9.25;;;19.40;74.00;;;;;;5068194;28;20056;-53
2022/10/29 17:00:45;;;;;;;22.13;8.85;;;19.40;73.40;;;;;;5069425;28;20067;-54
2022/10/29 17:03:13;;;;;;;13.38;6.32;;;19.40;73.70;;;;;;5069809;28;20036;-50
2022/10/29 17:05:41;;;;;;;15.15;6.80;;;19.50;73.20;;;;;;5069650;28;20028;-52
2022/10/29 17:08:07;;;;;;;17.13;8.20;;;19.40;73.10;;;;;;5051756;28;20055;-52
2022/10/29 17:10:33;;;;;;;28.60;8.65;;;19.40;73.10;;;;;;5068167;28;20021;-50
2022/10/29 17:12:59;;;;;;;22.38;7.32;;;19.30;73.30;;;;;;5069196;28;20029;-51
2022/10/29 17:15:25;;;;;;;17.88;8.65;;;19.30;73.50;;;;;;5069391;28;20075;-50
2022/10/29 17:17:51;;;;;;;17.67;7.22;;;19.20;73.70;;;;;;5069286;28;20032;-50
2022/10/29 17:20:17;;;;;;;21.20;7.57;;;19.20;72.60;;;;;;5068964;28;20158;-49
2022/10/29 17:22:43;;;;;;;22.85;7.05;;;19.30;71.90;;;;;;5068228;28;20161;-49
2022/10/29 17:25:08;;;;;;;17.73;5.25;;;19.30;71.90;;;;;;5069270;28;20048;-51
2022/10/29 17:27:39;;;;;;;15.68;5.90;;;19.30;71.00;;;;;;5069173;28;20023;-48
2022/10/29 17:30:06;;;;;;;18.65;6.55;;;19.30;70.70;;;;;;5069092;28;20028;-51
2022/10/29 17:32:31;;;;;;;14.13;5.05;;;19.30;70.50;;;;;;5068141;28;20025;-51
2022/10/29 17:34:58;;;;;;;13.65;5.07;;;19.30;70.30;;;;;;5068672;28;20436;-49
2022/10/29 17:37:24;;;;;;;16.75;5.03;;;19.30;70.30;;;;;;5057279;28;20025;-49
2022/10/29 17:39:50;;;;;;;10.05;5.00;;;19.30;70.10;;;;;;5056080;28;20103;-50
2022/10/29 17:42:15;;;;;;;15.85;5.65;;;19.30;69.90;;;;;;5055767;28;20025;-49
2022/10/29 17:44:41;;;;;;;23.85;5.38;;;19.30;69.90;;;;;;5055298;28;20469;-52
2022/10/29 17:47:07;;;;;;;19.17;6.05;;;19.20;69.90;;;;;;5055145;28;20061;-50
2022/10/29 17:49:33;;;;;;;17.90;8.30;;;19.20;70.10;;;;;;5055101;28;20469;-50
2022/10/29 17:51:58;;;;;;;12.07;6.05;;;19.10;70.20;;;;;;5055240;28;20476;-51
2022/10/29 17:54:26;;;;;;;21.92;6.65;;;19.00;70.40;;;;;;5055398;28;20021;-49
2022/10/29 17:56:51;;;;;;;19.05;7.13;;;18.90;70.50;;;;;;5054903;28;20037;-51
2022/10/29 17:59:17;;;;;;;15.70;5.88;;;19.00;69.90;;;;;;5055250;28;20031;-49
2022/10/29 18:01:43;;;;;;;20.88;6.38;;;18.90;69.80;;;;;;5055015;28;20028;-48
2022/10/29 18:04:10;;;;;;;14.95;5.40;;;18.90;69.90;;;;;;5055879;28;20025;-49
2022/10/29 18:06:35;;;;;;;15.57;6.03;;;18.90;69.80;;;;;;5055117;28;20029;-53
2022/10/29 18:09:01;;;;;;;17.75;5.45;;;18.90;69.60;;;;;;5055052;28;20365;-51
2022/10/29 18:11:27;;;;;;;21.88;5.20;;;19.00;69.40;;;;;;5055024;28;20047;-53
2022/10/29 18:13:54;;;;;;;12.93;4.28;;;19.00;69.10;;;;;;5053305;28;20024;-50
2022/10/29 18:16:22;;;;;;;14.15;5.05;;;19.00;69.20;;;;;;5054957;28;20096;-50
2022/10/29 18:18:50;;;;;;;12.73;5.22;;;18.90;69.40;;;;;;5055011;28;20029;-49
2022/10/29 18:21:18;;;;;;;10.00;5.10;;;18.80;69.90;;;;;;5054756;28;20068;-49
2022/10/29 18:23:44;;;;;;;15.68;4.53;;;18.80;70.00;;;;;;5055281;28;20116;-48
2022/10/29 18:26:19;;;;;;;15.00;5.38;;;18.80;69.80;;;;;;5054766;28;20040;-50
2022/10/29 18:28:44;;;;;;;14.75;5.13;;;18.80;69.50;;;;;;5054541;28;20040;-49
2022/10/29 18:31:10;;;;;;;19.05;8.07;;;18.70;69.50;;;;;;5054576;28;20017;-50
2022/10/29 18:33:36;;;;;;;20.42;10.35;;;18.60;70.20;;;;;;5054531;28;20024;-49
2022/10/29 18:36:02;;;;;;;15.18;5.90;;;18.40;71.20;;;;;;5054431;28;20380;-49
2022/10/29 18:38:28;;;;;;;14.73;7.32;;;18.30;71.10;;;;;;5054481;28;20108;-49
2022/10/29 18:40:55;;;;;;;31.40;8.20;;;18.30;71.40;;;;;;5054197;28;20075;-50
2022/10/29 18:43:23;;;;;;;14.02;6.13;;;18.30;71.20;;;;;;5054495;28;20029;-53
2022/10/29 18:45:55;;;;;;;12.40;4.90;;;18.30;70.90;;;;;;5053838;28;20025;-49
2022/10/29 18:48:22;;;;;;;11.45;5.28;;;18.30;70.70;;;;;;5053331;28;20021;-49
2022/10/29 18:50:47;;;;;;;11.68;5.25;;;18.30;70.40;;;;;;5053901;28;20021;-51
2022/10/29 18:53:13;;;;;;;11.07;5.22;;;18.30;70.70;;;;;;5054081;28;20021;-50
2022/10/29 18:55:50;;;;;;;14.65;5.65;;;18.30;70.50;;;;;;5054579;28;20029;-49
2022/10/29 18:58:16;;;;;;;16.85;5.50;;;18.20;70.90;;;;;;5052920;28;20025;-50
2022/10/29 19:00:42;;;;;;;14.30;5.97;;;18.20;71.00;;;;;;5053997;28;20094;-51
2022/10/29 19:03:09;;;;;;;13.45;5.40;;;18.20;70.90;;;;;;5054033;28;20028;-50
2022/10/29 19:05:35;;;;;;;21.83;6.50;;;18.10;70.70;;;;;;5054503;28;20361;-51
2022/10/29 19:08:01;;;;;;;18.75;7.70;;;18.10;70.90;;;;;;5054014;28;20047;-49
2022/10/29 19:10:26;;;;;;;18.88;9.57;;;18.20;71.30;;;;;;5053737;28;20051;-48
2022/10/29 19:12:52;;;;;;;22.67;10.30;;;18.00;71.20;;;;;;5052487;28;20021;-50
2022/10/29 19:15:18;;;;;;;15.85;8.88;;;18.00;71.20;;;;;;5053636;28;20028;-49
2022/10/29 19:17:43;;;;;;;19.17;7.60;;;18.00;71.00;;;;;;5053602;28;20111;-49
2022/10/29 19:20:10;;;;;;;17.40;7.82;;;18.00;71.10;;;;;;5053984;28;20104;-48
2022/10/29 19:22:35;;;;;;;19.05;7.47;;;18.00;70.80;;;;;;5053639;28;20071;-53
2022/10/29 19:25:01;;;;;;;17.42;7.80;;;18.00;71.20;;;;;;5053262;28;20077;-50
2022/10/29 19:27:27;;;;;;;12.52;5.18;;;18.00;70.80;;;;;;5053509;28;20029;-49
2022/10/29 19:29:52;;;;;;;14.52;5.35;;;18.10;69.40;;;;;;5053524;28;20021;-49
2022/10/29 19:32:18;;;;;;;14.40;5.47;;;18.10;69.30;;;;;;5053644;28;20067;-49
2022/10/29 19:34:44;;;;;;;16.77;5.53;;;18.10;69.30;;;;;;5053202;28;20029;-51
2022/10/29 19:37:10;;;;;;;23.77;7.55;;;18.20;68.80;;;;;;5053398;28;20029;-49
2022/10/29 19:39:35;;;;;;;18.17;8.48;;;18.20;68.50;;;;;;5051882;28;20029;-48
2022/10/29 19:42:01;;;;;;;23.35;7.82;;;18.10;68.60;;;;;;5054260;28;20047;-48
2022/10/29 19:44:27;;;;;;;16.95;6.93;;;18.10;68.30;;;;;;5053464;28;20103;-50
2022/10/29 19:46:52;;;;;;;19.42;8.35;;;18.00;68.80;;;;;;5053780;28;20025;-52
2022/10/29 19:49:19;;;;;;;18.95;6.95;;;18.00;69.10;;;;;;5054172;28;20023;-50
2022/10/29 19:51:47;;;;;;;17.65;6.53;;;18.00;69.00;;;;;;5053683;28;20028;-49
2022/10/29 19:54:12;;;;;;;12.45;5.63;;;18.00;69.40;;;;;;5052180;28;20036;-50
2022/10/29 19:56:38;;;;;;;15.80;6.45;;;18.30;68.00;;;;;;5053224;28;20029;-49
2022/10/29 19:59:04;;;;;;;13.43;7.15;;;18.20;67.80;;;;;;5053096;28;20017;-50
2022/10/29 20:01:37;;;;;;;15.20;5.80;;;18.00;68.50;;;;;;5051793;28;20479;-49
2022/10/29 20:04:03;;;;;;;15.10;6.68;;;17.80;69.10;;;;;;5051695;28;20041;-54
2022/10/29 20:06:29;;;;;;;24.33;6.75;;;17.80;69.50;;;;;;5053005;28;20032;-49
2022/10/29 20:08:55;;;;;;;15.20;5.60;;;17.80;69.50;;;;;;5052873;28;20104;-49
2022/10/29 20:11:20;;;;;;;13.70;6.13;;;17.80;69.30;;;;;;5053207;28;20404;-49
2022/10/29 20:13:46;;;;;;;12.27;6.93;;;17.80;69.30;;;;;;5053201;28;20017;-51
2022/10/29 20:16:17;;;;;;;20.27;6.57;;;17.80;69.60;;;;;;5035026;28;20027;-49
2022/10/29 20:18:43;;;;;;;14.52;6.03;;;17.80;70.00;;;;;;5053165;28;20381;-49
2022/10/29 20:21:08;;;;;;;16.77;6.32;;;17.80;70.10;;;;;;5052718;28;20036;-49
2022/10/29 20:23:34;;;;;;;13.07;6.10;;;17.70;70.30;;;;;;5052734;28;20496;-49
2022/10/29 20:26:00;;;;;;;15.27;5.68;;;17.70;70.60;;;;;;5052515;28;20122;-50
2022/10/29 20:28:25;;;;;;;17.20;7.38;;;17.70;70.70;;;;;;5052783;28;20017;-49
2022/10/29 20:31:14;;;;;;;16.70;6.55;;;17.70;71.70;;;;;;5053251;28;20025;-51
2022/10/29 20:33:40;;;;;;;18.77;7.70;;;17.60;72.10;;;;;;5052888;28;20415;-49
2022/10/29 20:36:06;;;;;;;14.38;7.85;;;17.60;71.70;;;;;;5051685;28;20036;-50
2022/10/29 20:38:31;;;;;;;16.38;7.03;;;17.60;72.10;;;;;;5051377;28;20495;-50
2022/10/29 20:40:57;;;;;;;19.55;7.18;;;17.60;72.20;;;;;;5052927;28;20466;-49
2022/10/29 20:43:23;;;;;;;12.05;6.45;;;17.50;72.40;;;;;;5051106;28;20091;-50
2022/10/29 20:45:48;;;;;;;17.08;7.55;;;17.50;72.70;;;;;;5052373;28;20021;-48
2022/10/29 20:48:14;;;;;;;11.05;6.88;;;17.50;73.30;;;;;;5052749;28;20025;-50
2022/10/29 20:50:39;;;;;;;17.92;5.93;;;17.40;73.50;;;;;;5052685;28;20094;-48
2022/10/29 20:53:05;;;;;;;20.95;7.72;;;17.30;73.70;;;;;;5052415;28;20104;-50
2022/10/29 20:55:32;;;;;;;15.18;6.35;;;17.30;74.10;;;;;;5051216;28;20112;-49
2022/10/29 20:57:57;;;;;;;15.65;6.22;;;17.20;74.40;;;;;;5051230;28;20056;-51
2022/10/29 21:00:23;;;;;;;15.32;6.85;;;17.10;74.60;;;;;;5052756;28;20029;-48
2022/10/29 21:02:49;;;;;;;17.80;7.05;;;17.10;74.80;;;;;;5052371;28;20487;-49
2022/10/29 21:05:14;;;;;;;20.05;7.88;;;17.10;74.60;;;;;;5052886;28;20147;-48
2022/10/29 21:07:40;;;;;;;17.10;7.45;;;17.00;74.90;;;;;;5052601;28;20468;-48
2022/10/29 21:10:07;;;;;;;17.98;7.82;;;17.10;75.00;;;;;;5052726;28;20484;-49
2022/10/29 21:12:32;;;;;;;18.90;9.32;;;17.00;74.90;;;;;;5055522;28;20493;-52
2022/10/29 21:14:58;;;;;;;18.30;6.68;;;17.00;74.80;;;;;;5054705;28;20108;-48
2022/10/29 21:17:24;;;;;;;15.55;6.93;;;17.00;75.00;;;;;;5055975;28;20110;-48
2022/10/29 21:19:49;;;;;;;15.95;7.35;;;17.00;75.10;;;;;;5056235;28;20031;-48
2022/10/29 21:22:17;;;;;;;20.75;9.10;;;17.00;75.00;;;;;;5056108;28;20053;-49
2022/10/29 21:24:44;;;;;;;16.02;6.68;;;16.90;75.40;;;;;;5055699;28;20045;-49
2022/10/29 21:27:09;;;;;;;18.67;7.75;;;16.80;75.70;;;;;;5055136;28;20029;-49
2022/10/29 21:29:35;;;;;;;13.48;6.85;;;16.80;75.80;;;;;;5055947;28;20409;-48
2022/10/29 21:32:01;;;;;;;15.57;8.35;;;16.80;75.90;;;;;;5056092;28;20017;-53
2022/10/29 21:34:26;;;;;;;19.65;8.95;;;16.80;76.00;;;;;;5054454;28;20029;-49
2022/10/29 21:36:52;;;;;;;16.98;8.52;;;16.80;76.20;;;;;;5055753;28;20113;-49
2022/10/29 21:39:18;;;;;;;17.60;8.82;;;16.80;76.20;;;;;;5055852;28;20025;-51
2022/10/29 21:41:44;;;;;;;14.10;7.47;;;16.80;76.20;;;;;;5054300;28;20036;-50
2022/10/29 21:44:09;;;;;;;15.40;8.35;;;16.80;76.30;;;;;;5056003;28;20492;-51
2022/10/29 21:46:35;;;;;;;13.80;7.32;;;16.70;76.10;;;;;;5055644;28;20021;-51
2022/10/29 21:49:00;;;;;;;18.85;9.55;;;16.70;76.40;;;;;;5055424;28;20053;-50
2022/10/29 21:51:26;;;;;;;18.02;7.57;;;16.70;76.40;;;;;;5055699;28;20139;-56
2022/10/29 21:53:52;;;;;;;12.02;6.90;;;16.60;76.80;;;;;;5055862;28;20074;-52
2022/10/29 21:56:18;;;;;;;18.40;7.35;;;16.60;76.90;;;;;;5055695;28;20067;-49
2022/10/29 21:58:44;;;;;;;17.10;6.25;;;16.60;77.10;;;;;;5055306;28;20487;-48
2022/10/29 22:01:12;;;;;;;13.60;7.20;;;16.60;77.20;;;;;;5055700;28;20025;-49
2022/10/29 22:03:40;;;;;;;16.17;7.70;;;16.60;77.20;;;;;;5055815;28;20028;-52
2022/10/29 22:06:17;;;;;;;14.93;9.00;;;16.50;77.60;;;;;;5055049;28;20079;-49
2022/10/29 22:08:44;;;;;;;16.98;7.57;;;16.60;77.80;;;;;;5054420;28;20025;-49
2022/10/29 22:11:11;;;;;;;17.25;6.78;;;16.50;77.70;;;;;;5055121;28;20473;-51
2022/10/29 22:13:37;;;;;;;15.35;7.43;;;16.50;77.90;;;;;;5055235;28;20027;-49
2022/10/29 22:16:05;;;;;;;14.63;7.78;;;16.50;78.10;;;;;;5054903;28;20033;-49
2022/10/29 22:18:31;;;;;;;12.27;6.57;;;16.40;78.30;;;;;;5054908;28;20052;-50
2022/10/29 22:21:10;;;;;;;17.95;8.25;;;16.40;78.50;;;;;;5054827;28;20057;-50
2022/10/29 22:23:41;;;;;;;12.70;7.13;;;16.30;78.70;;;;;;5054685;28;20032;-49
2022/10/29 22:26:06;;;;;;;14.63;7.53;;;16.30;78.80;;;;;;5054907;28;20053;-50
2022/10/29 22:28:32;;;;;;;17.15;8.00;;;16.30;78.90;;;;;;5054819;28;20071;-50
2022/10/29 22:30:59;;;;;;;19.65;8.38;;;16.30;78.60;;;;;;5053357;28;20059;-49
2022/10/29 22:33:26;;;;;;;16.25;7.57;;;16.30;78.50;;;;;;5054884;28;20021;-50
2022/10/29 22:35:51;;;;;;;16.00;7.18;;;16.30;78.30;;;;;;5054626;28;20033;-49
2022/10/29 22:38:17;;;;;;;14.13;6.75;;;16.40;78.60;;;;;;5054529;28;20050;-49
2022/10/29 22:40:43;;;;;;;16.92;8.32;;;16.30;78.60;;;;;;5054414;28;20044;-49
2022/10/29 22:43:08;;;;;;;15.75;7.45;;;16.30;78.80;;;;;;5054381;28;20477;-49
2022/10/29 22:45:34;;;;;;;15.40;7.28;;;16.30;79.00;;;;;;5054143;28;20557;-49
2022/10/29 22:47:59;;;;;;;23.80;8.15;;;16.30;78.80;;;;;;5053247;28;20139;-50
2022/10/29 22:50:25;;;;;;;16.92;7.95;;;16.30;78.70;;;;;;5054515;28;20048;-52
2022/10/29 22:52:51;;;;;;;20.48;7.00;;;16.20;78.80;;;;;;5054549;28;20044;-49
2022/10/29 22:55:16;;;;;;;20.35;6.85;;;16.20;79.20;;;;;;5054354;28;20025;-51